createdAt,value
2018-05-06T00:01:12.950Z,12.40
2018-05-06T00:03:40.475Z,12.40
2018-05-06T00:06:08.171Z,12.40
2018-05-06T00:08:35.688Z,12.40
2018-05-06T00:11:03.391Z,12.40
2018-05-06T00:13:31.161Z,12.40
2018-05-06T00:15:58.661Z,12.40
2018-05-06T00:18:26.666Z,12.40
2018-05-06T00:20:54.441Z,12.30
2018-05-06T00:23:22.063Z,12.30
2018-05-06T00:25:49.910Z,12.30
2018-05-06T00:28:17.441Z,12.30
2018-05-06T00:30:45.013Z,12.30
2018-05-06T00:33:12.620Z,12.30
2018-05-06T00:35:40.131Z,12.30
2018-05-06T00:38:07.843Z,12.30
2018-05-06T00:40:35.350Z,12.30
2018-05-06T00:43:02.861Z,12.30
2018-05-06T00:45:30.536Z,12.20
2018-05-06T00:47:58.054Z,12.20
2018-05-06T00:50:25.941Z,12.20
2018-05-06T00:52:53.434Z,12.20
2018-05-06T00:55:20.994Z,12.10
2018-05-06T00:57:48.515Z,12.10
2018-05-06T01:00:16.153Z,12.10
2018-05-06T01:02:43.665Z,12.00
2018-05-06T01:05:11.169Z,12.00
2018-05-06T01:07:38.857Z,12.00
2018-05-06T01:10:06.560Z,11.90
2018-05-06T01:12:34.109Z,11.90
2018-05-06T01:15:01.606Z,11.80
2018-05-06T01:17:29.114Z,11.80
2018-05-06T01:19:56.739Z,11.70
2018-05-06T01:22:24.564Z,11.70
2018-05-06T01:24:52.305Z,11.60
2018-05-06T01:27:20.361Z,11.60
2018-05-06T01:29:48.315Z,11.60
2018-05-06T01:32:15.802Z,11.60
2018-05-06T01:34:43.306Z,11.60
2018-05-06T01:37:10.813Z,11.60
2018-05-06T01:39:38.316Z,11.60
2018-05-06T01:42:05.889Z,11.60
2018-05-06T01:44:33.385Z,11.50
2018-05-06T01:47:00.890Z,11.50
2018-05-06T01:49:28.401Z,11.50
2018-05-06T01:51:56.162Z,11.40
2018-05-06T01:54:23.930Z,11.40
2018-05-06T01:56:51.701Z,11.50
2018-05-06T01:59:19.428Z,11.40
2018-05-06T02:01:46.925Z,11.40
2018-05-06T02:04:14.673Z,11.30
2018-05-06T02:06:42.434Z,11.30
2018-05-06T02:09:09.946Z,11.20
2018-05-06T02:11:37.630Z,11.30
2018-05-06T02:14:05.133Z,11.20
2018-05-06T02:16:32.639Z,11.20
2018-05-06T02:19:00.339Z,11.10
2018-05-06T02:21:27.845Z,11.10
2018-05-06T02:23:55.349Z,11.10
2018-05-06T02:26:22.858Z,11.10
2018-05-06T02:28:51.147Z,11.00
2018-05-06T02:31:18.775Z,11.00
2018-05-06T02:33:46.302Z,11.00
2018-05-06T02:36:13.903Z,11.00
2018-05-06T02:38:41.418Z,11.00
2018-05-06T02:41:08.954Z,10.90
2018-05-06T02:43:36.466Z,10.90
2018-05-06T02:46:04.202Z,10.90
2018-05-06T02:48:31.725Z,10.90
2018-05-06T02:50:59.425Z,10.90
2018-05-06T02:53:26.930Z,10.80
2018-05-06T02:55:54.440Z,10.80
2018-05-06T02:58:22.099Z,10.80
2018-05-06T03:00:49.858Z,10.80
2018-05-06T03:03:17.370Z,10.80
2018-05-06T03:05:44.863Z,10.80
2018-05-06T03:08:12.536Z,10.80
2018-05-06T03:10:40.306Z,10.80
2018-05-06T03:13:07.815Z,10.70
2018-05-06T03:15:35.482Z,10.70
2018-05-06T03:18:02.990Z,10.60
2018-05-06T03:20:30.496Z,10.60
2018-05-06T03:22:58.010Z,10.60
2018-05-06T03:25:26.231Z,10.60
2018-05-06T03:27:54.044Z,10.60
2018-05-06T03:30:22.769Z,10.60
2018-05-06T03:32:50.442Z,10.60
2018-05-06T03:35:17.974Z,10.60
2018-05-06T03:37:45.704Z,10.50
2018-05-06T03:40:13.210Z,10.50
2018-05-06T03:42:41.004Z,10.60
2018-05-06T03:45:09.603Z,10.50
2018-05-06T03:47:37.374Z,10.50
2018-05-06T03:50:05.139Z,10.50
2018-05-06T03:52:32.903Z,10.50
2018-05-06T03:55:00.606Z,10.50
2018-05-06T03:57:40.100Z,10.50
2018-05-06T04:00:19.777Z,10.50
2018-05-06T04:02:47.302Z,10.50
2018-05-06T04:05:15.018Z,10.50
2018-05-06T04:07:42.521Z,10.50
2018-05-06T04:10:10.102Z,10.50
2018-05-06T04:12:37.739Z,10.40
2018-05-06T04:15:05.251Z,10.40
2018-05-06T04:17:32.927Z,10.50
2018-05-06T04:20:00.902Z,10.50
2018-05-06T04:22:28.397Z,10.50
2018-05-06T04:24:55.906Z,10.50
2018-05-06T04:27:23.419Z,10.50
2018-05-06T04:29:51.325Z,10.50
2018-05-06T04:32:18.846Z,10.50
2018-05-06T04:34:46.372Z,10.50
2018-05-06T04:37:13.861Z,10.50
2018-05-06T04:39:41.375Z,10.50
2018-05-06T04:42:09.053Z,10.60
2018-05-06T04:44:36.558Z,10.60
2018-05-06T04:47:04.206Z,10.70
2018-05-06T04:49:31.733Z,10.80
2018-05-06T04:51:59.236Z,10.80
2018-05-06T04:54:26.952Z,10.80
2018-05-06T04:56:54.897Z,10.90
2018-05-06T04:59:22.482Z,10.90
2018-05-06T05:01:50.241Z,11.00
2018-05-06T05:04:17.754Z,11.10
2018-05-06T05:06:45.321Z,11.20
2018-05-06T05:09:12.918Z,11.30
2018-05-06T05:11:40.690Z,11.40
2018-05-06T05:14:08.275Z,11.60
2018-05-06T05:16:35.902Z,11.70
2018-05-06T05:19:03.899Z,11.70
2018-05-06T05:21:31.967Z,11.80
2018-05-06T05:23:59.741Z,11.80
2018-05-06T05:26:27.694Z,11.90
2018-05-06T05:28:55.334Z,12.00
2018-05-06T05:31:22.851Z,12.00
2018-05-06T05:33:50.565Z,12.00
2018-05-06T05:36:18.096Z,12.10
2018-05-06T05:38:45.574Z,12.20
2018-05-06T05:41:13.075Z,12.30
2018-05-06T05:43:41.612Z,12.40
2018-05-06T05:46:09.126Z,12.30
2018-05-06T05:48:36.639Z,12.40
2018-05-06T05:51:04.295Z,12.50
2018-05-06T05:53:31.805Z,12.50
2018-05-06T05:55:59.507Z,12.60
2018-05-06T05:58:27.019Z,12.70
2018-05-06T06:00:54.642Z,12.80
2018-05-06T06:03:23.137Z,12.80
2018-05-06T06:05:50.871Z,13.00
2018-05-06T06:08:18.374Z,13.10
2018-05-06T06:10:46.095Z,13.60
2018-05-06T06:13:13.856Z,13.70
2018-05-06T06:15:41.353Z,13.60
2018-05-06T06:18:09.034Z,13.60
2018-05-06T06:20:36.650Z,13.70
2018-05-06T06:23:04.295Z,13.70
2018-05-06T06:25:32.015Z,13.80
2018-05-06T06:27:59.527Z,14.00
2018-05-06T06:30:27.281Z,14.10
2018-05-06T06:32:55.077Z,14.20
2018-05-06T06:35:22.625Z,14.20
2018-05-06T06:37:50.259Z,14.30
2018-05-06T06:40:18.035Z,14.40
2018-05-06T06:42:45.746Z,14.40
2018-05-06T06:45:13.890Z,14.50
2018-05-06T06:47:41.403Z,14.70
2018-05-06T06:50:08.919Z,14.80
2018-05-06T06:52:38.097Z,15.00
2018-05-06T06:55:05.664Z,14.90
2018-05-06T06:57:33.925Z,15.10
2018-05-06T07:00:01.451Z,15.10
2018-05-06T07:02:29.123Z,15.10
2018-05-06T07:04:56.626Z,15.50
2018-05-06T07:07:24.563Z,15.50
2018-05-06T07:09:52.424Z,15.60
2018-05-06T07:12:20.125Z,15.80
2018-05-06T07:14:48.257Z,15.80
2018-05-06T07:17:15.767Z,16.00
2018-05-06T07:19:43.255Z,16.00
2018-05-06T07:22:10.930Z,16.20
2018-05-06T07:24:38.612Z,16.40
2018-05-06T07:27:06.125Z,16.70
2018-05-06T07:29:33.637Z,16.60
2018-05-06T07:32:01.369Z,16.70
2018-05-06T07:34:28.876Z,16.70
2018-05-06T07:36:56.551Z,16.80
2018-05-06T07:39:24.350Z,16.70
2018-05-06T07:41:51.985Z,16.60
2018-05-06T07:44:19.474Z,16.70
2018-05-06T07:46:46.986Z,17.10
2018-05-06T07:49:15.131Z,17.30
2018-05-06T07:51:42.643Z,17.20
2018-05-06T07:54:10.318Z,17.30
2018-05-06T07:56:37.828Z,17.50
2018-05-06T07:59:05.506Z,17.50
2018-05-06T08:01:33.017Z,17.50
2018-05-06T08:04:00.818Z,17.30
2018-05-06T08:06:28.325Z,17.10
2018-05-06T08:08:56.180Z,17.30
2018-05-06T08:11:23.719Z,17.60
2018-05-06T08:13:51.433Z,17.60
2018-05-06T08:16:19.003Z,18.00
2018-05-06T08:18:46.447Z,17.80
2018-05-06T08:21:15.137Z,18.10
2018-05-06T08:23:42.641Z,18.10
2018-05-06T08:26:10.718Z,18.20
2018-05-06T08:28:38.382Z,18.10
2018-05-06T08:31:06.328Z,18.00
2018-05-06T08:33:33.826Z,17.60
2018-05-06T08:36:01.349Z,17.50
2018-05-06T08:38:28.910Z,17.60
2018-05-06T08:40:56.577Z,17.80
2018-05-06T08:43:24.098Z,17.90
2018-05-06T08:45:51.894Z,17.90
2018-05-06T08:48:19.338Z,18.00
2018-05-06T08:50:46.852Z,18.00
2018-05-06T08:53:14.374Z,18.00
2018-05-06T08:55:41.985Z,18.00
2018-05-06T08:58:09.518Z,18.00
2018-05-06T09:00:37.182Z,18.00
2018-05-06T09:03:04.871Z,18.00
2018-05-06T09:05:32.380Z,18.20
2018-05-06T09:08:00.154Z,18.40
2018-05-06T09:10:27.667Z,18.50
2018-05-06T09:12:55.390Z,18.50
2018-05-06T09:15:22.915Z,18.60
2018-05-06T09:17:50.572Z,18.80
2018-05-06T09:20:18.064Z,18.80
2018-05-06T09:22:45.823Z,19.00
2018-05-06T09:25:13.327Z,19.00
2018-05-06T09:27:40.838Z,19.00
2018-05-06T09:30:09.093Z,19.00
2018-05-06T09:32:36.809Z,19.10
2018-05-06T09:35:04.398Z,19.10
2018-05-06T09:37:32.087Z,19.20
2018-05-06T09:39:59.592Z,19.30
2018-05-06T09:42:27.312Z,19.40
2018-05-06T09:44:54.819Z,19.30
2018-05-06T09:47:22.506Z,19.40
2018-05-06T09:49:50.518Z,19.50
2018-05-06T09:52:18.055Z,19.60
2018-05-06T09:54:45.563Z,19.60
2018-05-06T09:57:13.282Z,19.60
2018-05-06T09:59:40.783Z,19.70
2018-05-06T10:02:08.469Z,19.70
2018-05-06T10:04:36.274Z,19.90
2018-05-06T10:07:04.018Z,19.50
2018-05-06T10:09:31.782Z,19.70
2018-05-06T10:11:59.554Z,19.90
2018-05-06T10:14:27.059Z,20.00
2018-05-06T10:16:54.765Z,20.10
2018-05-06T10:19:22.281Z,19.90
2018-05-06T10:21:49.790Z,19.90
2018-05-06T10:24:17.307Z,20.00
2018-05-06T10:26:44.831Z,20.20
2018-05-06T10:29:12.364Z,20.20
2018-05-06T10:31:40.150Z,20.20
2018-05-06T10:34:09.166Z,20.30
2018-05-06T10:36:36.838Z,20.30
2018-05-06T10:39:04.350Z,20.50
2018-05-06T10:41:31.882Z,20.60
2018-05-06T10:43:59.668Z,20.60
2018-05-06T10:46:27.315Z,20.60
2018-05-06T10:48:54.817Z,20.70
2018-05-06T10:51:22.327Z,20.70
2018-05-06T10:53:49.841Z,20.60
2018-05-06T10:56:18.107Z,20.80
2018-05-06T10:58:45.836Z,20.70
2018-05-06T11:01:13.329Z,20.70
2018-05-06T11:03:41.053Z,20.80
2018-05-06T11:06:08.571Z,20.70
2018-05-06T11:08:36.238Z,20.60
2018-05-06T11:11:03.741Z,20.50
2018-05-06T11:13:31.491Z,20.60
2018-05-06T11:15:59.247Z,20.80
2018-05-06T11:18:26.761Z,21.00
2018-05-06T11:20:54.276Z,21.10
2018-05-06T11:23:21.781Z,21.20
2018-05-06T11:25:49.282Z,21.20
2018-05-06T11:28:16.795Z,21.30
2018-05-06T11:30:44.298Z,21.20
2018-05-06T11:33:11.805Z,21.20
2018-05-06T11:35:39.403Z,21.20
2018-05-06T11:38:06.977Z,21.40
2018-05-06T11:40:34.470Z,21.50
2018-05-06T11:43:02.194Z,21.40
2018-05-06T11:45:29.969Z,21.50
2018-05-06T11:47:57.475Z,21.40
2018-05-06T11:50:25.156Z,21.40
2018-05-06T11:52:52.726Z,21.60
2018-05-06T11:55:21.664Z,21.50
2018-05-06T11:57:49.396Z,21.50
2018-05-06T12:00:16.902Z,21.80
2018-05-06T12:02:44.873Z,21.80
2018-05-06T12:05:12.686Z,22.00
2018-05-06T12:07:40.215Z,21.90
2018-05-06T12:10:07.740Z,21.90
2018-05-06T12:12:36.576Z,22.00
2018-05-06T12:15:04.083Z,21.90
2018-05-06T12:17:31.770Z,21.80
2018-05-06T12:20:00.170Z,21.80
2018-05-06T12:22:28.126Z,21.80
2018-05-06T12:24:55.717Z,21.90
2018-05-06T12:27:23.476Z,22.00
2018-05-06T12:29:51.082Z,22.00
2018-05-06T12:32:19.354Z,21.80
2018-05-06T12:34:46.881Z,21.80
2018-05-06T12:37:15.419Z,22.00
2018-05-06T12:39:43.125Z,22.00
2018-05-06T12:42:10.630Z,22.10
2018-05-06T12:44:38.133Z,22.10
2018-05-06T12:47:05.633Z,22.10
2018-05-06T12:49:33.358Z,22.10
2018-05-06T12:52:00.854Z,22.20
2018-05-06T12:54:29.378Z,22.20
2018-05-06T12:56:56.881Z,22.20
2018-05-06T12:59:25.333Z,22.20
2018-05-06T13:01:52.834Z,22.10
2018-05-06T13:04:20.359Z,22.20
2018-05-06T13:06:47.878Z,22.30
2018-05-06T13:09:15.417Z,22.20
2018-05-06T13:11:42.927Z,22.30
2018-05-06T13:14:10.448Z,22.30
2018-05-06T13:16:37.990Z,22.40
2018-05-06T13:19:05.539Z,22.50
2018-05-06T13:21:33.058Z,22.60
2018-05-06T13:24:00.658Z,22.70
2018-05-06T13:26:28.918Z,22.70
2018-05-06T13:28:57.227Z,22.70
2018-05-06T13:31:24.746Z,22.80
2018-05-06T13:33:52.473Z,22.90
2018-05-06T13:36:20.239Z,23.00
2018-05-06T13:38:47.746Z,23.20
2018-05-06T13:41:15.277Z,23.20
2018-05-06T13:43:42.838Z,23.30
2018-05-06T13:46:10.343Z,23.50
2018-05-06T13:48:37.881Z,23.70
2018-05-06T13:51:05.385Z,23.80
2018-05-06T13:53:32.917Z,24.00
2018-05-06T13:56:00.422Z,24.10
2018-05-06T13:58:28.115Z,24.30
2018-05-06T14:00:57.169Z,24.60
2018-05-06T14:03:24.723Z,24.60
2018-05-06T14:05:52.334Z,24.50
2018-05-06T14:08:19.946Z,24.80
2018-05-06T14:10:47.477Z,24.90
2018-05-06T14:13:15.163Z,25.00
2018-05-06T14:15:42.679Z,25.30
2018-05-06T14:18:10.377Z,25.40
2018-05-06T14:20:37.883Z,25.10
2018-05-06T14:23:05.381Z,25.10
2018-05-06T14:25:32.885Z,25.00
2018-05-06T14:28:01.149Z,25.00
2018-05-06T14:30:28.670Z,25.00
2018-05-06T14:32:56.310Z,25.10
2018-05-06T14:35:24.034Z,24.60
2018-05-06T14:37:51.540Z,24.60
2018-05-06T14:40:19.284Z,24.30
2018-05-06T14:42:46.786Z,24.40
2018-05-06T14:45:14.329Z,24.70
2018-05-06T14:47:53.626Z,24.60
2018-05-06T14:50:21.154Z,24.80
2018-05-06T14:52:48.647Z,24.80
2018-05-06T14:55:16.361Z,24.70
2018-05-06T14:57:43.858Z,24.50
2018-05-06T15:00:11.357Z,24.70
2018-05-06T15:02:38.913Z,25.00
2018-05-06T15:05:06.425Z,25.20
2018-05-06T15:07:34.813Z,25.50
2018-05-06T15:10:03.089Z,25.60
2018-05-06T15:12:31.364Z,25.80
2018-05-06T15:14:59.081Z,25.80
2018-05-06T15:17:26.851Z,26.00
2018-05-06T15:19:54.386Z,25.60
2018-05-06T15:22:21.946Z,25.40
2018-05-06T15:24:49.522Z,25.90
2018-05-06T15:27:17.299Z,25.40
2018-05-06T15:29:45.038Z,24.70
2018-05-06T15:32:12.812Z,25.10
2018-05-06T15:34:40.310Z,25.30
2018-05-06T15:37:08.033Z,24.80
2018-05-06T15:39:35.810Z,25.10
2018-05-06T15:42:03.435Z,24.70
2018-05-06T15:44:31.015Z,25.00
2018-05-06T15:46:58.533Z,25.20
2018-05-06T15:49:26.033Z,25.70
2018-05-06T15:51:53.541Z,26.10
2018-05-06T15:54:21.051Z,26.40
2018-05-06T15:56:48.558Z,26.70
2018-05-06T15:59:16.062Z,27.00
2018-05-06T16:01:43.824Z,27.00
2018-05-06T16:04:14.230Z,27.30
2018-05-06T16:06:41.859Z,27.00
2018-05-06T16:09:09.313Z,27.40
2018-05-06T16:11:37.023Z,27.70
2018-05-06T16:14:04.540Z,27.50
2018-05-06T16:16:32.123Z,27.30
2018-05-06T16:18:59.673Z,27.80
2018-05-06T16:21:27.189Z,28.40
2018-05-06T16:23:54.698Z,27.30
2018-05-06T16:26:22.195Z,28.50
2018-05-06T16:28:49.713Z,29.30
2018-05-06T16:31:17.305Z,29.80
2018-05-06T16:33:44.821Z,29.80
2018-05-06T16:36:12.510Z,30.00
2018-05-06T16:38:40.018Z,30.40
2018-05-06T16:41:07.735Z,30.70
2018-05-06T16:43:35.245Z,30.40
2018-05-06T16:46:02.950Z,29.00
2018-05-06T16:48:30.458Z,28.30
2018-05-06T16:50:58.006Z,27.80
2018-05-06T16:53:25.626Z,26.60
2018-05-06T16:55:53.389Z,25.90
2018-05-06T16:58:21.158Z,25.40
2018-05-06T17:00:48.659Z,24.90
2018-05-06T17:03:16.384Z,24.60
2018-05-06T17:05:43.879Z,24.30
2018-05-06T17:08:11.393Z,24.10
2018-05-06T17:10:39.053Z,24.30
2018-05-06T17:13:06.581Z,24.40
2018-05-06T17:15:34.067Z,24.10
2018-05-06T17:18:01.692Z,23.90
2018-05-06T17:20:29.306Z,23.70
2018-05-06T17:22:56.829Z,23.30
2018-05-06T17:25:24.385Z,23.00
2018-05-06T17:27:51.919Z,23.10
2018-05-06T17:30:19.463Z,23.00
2018-05-06T17:32:47.734Z,22.90
2018-05-06T17:35:15.238Z,22.90
2018-05-06T17:37:42.749Z,23.10
2018-05-06T17:40:10.255Z,23.10
2018-05-06T17:42:37.827Z,22.80
2018-05-06T17:45:05.337Z,22.90
2018-05-06T17:47:32.985Z,22.70
2018-05-06T17:50:00.501Z,22.60
2018-05-06T17:52:28.001Z,22.50
2018-05-06T17:54:55.735Z,22.40
2018-05-06T17:57:23.250Z,22.40
2018-05-06T17:59:50.945Z,22.30
2018-05-06T18:02:18.454Z,22.30
2018-05-06T18:04:46.179Z,22.30
2018-05-06T18:07:13.689Z,22.30
2018-05-06T18:09:41.385Z,22.10
2018-05-06T18:12:08.911Z,22.10
2018-05-06T18:14:36.425Z,21.90
2018-05-06T18:17:04.058Z,21.90
2018-05-06T18:19:31.568Z,21.80
2018-05-06T18:21:59.293Z,21.90
2018-05-06T18:24:27.054Z,21.80
2018-05-06T18:26:54.805Z,21.80
2018-05-06T18:29:22.321Z,21.80
2018-05-06T18:31:49.825Z,21.60
2018-05-06T18:34:17.341Z,21.60
2018-05-06T18:36:45.617Z,21.60
2018-05-06T18:39:13.294Z,21.50
2018-05-06T18:41:40.801Z,21.50
2018-05-06T18:44:08.510Z,21.30
2018-05-06T18:46:36.300Z,21.30
2018-05-06T18:49:04.070Z,21.20
2018-05-06T18:51:31.603Z,21.20
2018-05-06T18:53:59.197Z,21.10
2018-05-06T18:56:26.751Z,21.00
2018-05-06T18:58:54.381Z,20.80
2018-05-06T19:01:21.916Z,20.80
2018-05-06T19:03:50.319Z,20.60
2018-05-06T19:06:17.851Z,20.60
2018-05-06T19:08:45.418Z,20.60
2018-05-06T19:11:13.682Z,20.30
2018-05-06T19:13:41.407Z,20.30
2018-05-06T19:16:09.161Z,20.20
2018-05-06T19:18:36.674Z,20.10
2018-05-06T19:21:04.355Z,20.00
2018-05-06T19:23:31.881Z,20.00
2018-05-06T19:25:59.474Z,19.80
2018-05-06T19:28:27.053Z,19.70
2018-05-06T19:30:54.574Z,19.60
2018-05-06T19:33:22.253Z,19.50
2018-05-06T19:35:49.898Z,19.50
2018-05-06T19:38:17.398Z,19.30
2018-05-06T19:40:44.917Z,19.30
2018-05-06T19:43:12.439Z,19.30
2018-05-06T19:45:39.935Z,19.30
2018-05-06T19:48:07.626Z,19.30
2018-05-06T19:50:35.390Z,19.20
2018-05-06T19:53:02.917Z,19.10
2018-05-06T19:55:30.628Z,19.10
2018-05-06T19:57:58.137Z,19.00
2018-05-06T20:00:25.659Z,18.90
2018-05-06T20:02:53.162Z,18.90
2018-05-06T20:05:20.742Z,18.90
2018-05-06T20:07:48.266Z,18.90
2018-05-06T20:10:16.098Z,18.70
2018-05-06T20:12:43.743Z,18.70
2018-05-06T20:15:11.264Z,18.50
2018-05-06T20:17:38.802Z,18.40
2018-05-06T20:20:06.345Z,18.50
2018-05-06T20:22:33.871Z,18.50
2018-05-06T20:25:01.394Z,18.50
2018-05-06T20:27:29.082Z,18.40
2018-05-06T20:29:56.592Z,18.40
2018-05-06T20:32:24.253Z,18.40
2018-05-06T20:34:51.769Z,18.20
2018-05-06T20:37:19.278Z,18.00
2018-05-06T20:39:46.990Z,17.80
2018-05-06T20:42:14.924Z,17.90
2018-05-06T20:44:42.494Z,17.80
2018-05-06T20:47:10.137Z,17.90
2018-05-06T20:49:37.707Z,17.90
2018-05-06T20:52:05.474Z,17.80
2018-05-06T20:54:32.984Z,17.90
2018-05-06T20:57:01.250Z,17.80
2018-05-06T20:59:28.777Z,17.80
2018-05-06T21:01:56.295Z,17.70
2018-05-06T21:04:23.822Z,17.70
2018-05-06T21:06:51.458Z,17.60
2018-05-06T21:09:18.957Z,17.50
2018-05-06T21:11:46.483Z,17.40
2018-05-06T21:14:14.110Z,17.30
2018-05-06T21:16:41.639Z,17.30
2018-05-06T21:19:09.154Z,17.40
2018-05-06T21:21:36.819Z,17.40
2018-05-06T21:24:04.366Z,17.30
2018-05-06T21:26:31.866Z,17.30
2018-05-06T21:29:00.134Z,17.30
2018-05-06T21:31:27.868Z,17.30
2018-05-06T21:33:55.384Z,17.30
2018-05-06T21:36:22.889Z,17.30
2018-05-06T21:38:50.507Z,17.20
2018-05-06T21:41:18.026Z,17.10
2018-05-06T21:43:45.738Z,17.10
2018-05-06T21:46:13.233Z,17.00
2018-05-06T21:48:41.162Z,16.90
2018-05-06T21:51:08.645Z,16.90
2018-05-06T21:53:36.218Z,16.90
2018-05-06T21:56:03.738Z,16.70
2018-05-06T21:58:31.399Z,16.70
2018-05-06T22:00:58.894Z,16.70
2018-05-06T22:03:26.407Z,16.70
2018-05-06T22:05:54.105Z,16.70
2018-05-06T22:08:22.010Z,16.60
2018-05-06T22:10:50.551Z,16.60
2018-05-06T22:13:18.069Z,16.50
2018-05-06T22:15:45.588Z,16.60
2018-05-06T22:18:13.220Z,16.50
2018-05-06T22:20:40.848Z,16.50
2018-05-06T22:23:08.444Z,16.40
2018-05-06T22:25:36.642Z,16.40
2018-05-06T22:28:04.274Z,16.30
2018-05-06T22:30:31.779Z,16.30
2018-05-06T22:32:59.498Z,16.20
2018-05-06T22:35:26.998Z,16.30
2018-05-06T22:37:54.716Z,16.30
2018-05-06T22:40:22.349Z,16.30
2018-05-06T22:42:49.911Z,16.30
2018-05-06T22:45:17.450Z,16.30
2018-05-06T22:47:45.122Z,16.30
2018-05-06T22:50:12.621Z,16.20
2018-05-06T22:52:40.123Z,16.20
2018-05-06T22:55:07.836Z,16.20
2018-05-06T22:57:35.330Z,16.10
2018-05-06T23:00:02.838Z,16.10
2018-05-06T23:02:31.240Z,16.10
2018-05-06T23:04:58.862Z,16.00
2018-05-06T23:07:26.375Z,16.10
2018-05-06T23:09:53.882Z,16.00
2018-05-06T23:12:21.406Z,16.00
2018-05-06T23:14:49.682Z,16.00
2018-05-06T23:17:17.398Z,16.00
2018-05-06T23:19:45.165Z,15.90
2018-05-06T23:22:12.710Z,15.90
2018-05-06T23:24:40.383Z,15.90
2018-05-06T23:27:08.149Z,15.80
2018-05-06T23:29:35.648Z,15.90
2018-05-06T23:32:03.986Z,15.80
2018-05-06T23:34:31.529Z,15.70
2018-05-06T23:36:59.198Z,15.70
2018-05-06T23:39:26.974Z,15.70
2018-05-06T23:41:54.483Z,15.60
2018-05-06T23:44:22.164Z,15.50
2018-05-06T23:46:49.945Z,15.40
2018-05-06T23:49:17.601Z,15.30
2018-05-06T23:51:45.111Z,15.30
2018-05-06T23:54:12.621Z,15.30
2018-05-06T23:56:40.385Z,15.20
2018-05-06T23:59:08.149Z,15.20
